sensor_id;sensor_type;location;lat;lon;timestamp;P1;durP1;ratioP1;P2;durP2;ratioP2
29238;SDS011;16267;48.194;11.546;2023-08-12T00:01:17;1.13;;;0.93;;
29238;SDS011;16267;48.194;11.546;2023-08-12T00:03:48;1.33;;;1.02;;
29238;SDS011;16267;48.194;11.546;2023-08-12T00:06:18;1.98;;;1.40;;
29238;SDS011;16267;48.194;11.546;2023-08-12T00:08:43;2.00;;;1.30;;
29238;SDS011;16267;48.194;11.546;2023-08-12T00:11:09;1.80;;;1.20;;
29238;SDS011;16267;48.194;11.546;2023-08-12T00:13:35;1.65;;;1.10;;
29238;SDS011;16267;48.194;11.546;2023-08-12T00:16:01;1.63;;;1.00;;
29238;SDS011;16267;48.194;11.546;2023-08-12T00:18:27;1.95;;;1.20;;
29238;SDS011;16267;48.194;11.546;2023-08-12T00:21:29;1.88;;;1.00;;
29238;SDS011;16267;48.194;11.546;2023-08-12T00:23:47;2.08;;;1.15;;
29238;SDS011;16267;48.194;11.546;2023-08-12T00:26:14;1.60;;;0.93;;
29238;SDS011;16267;48.194;11.546;2023-08-12T00:31:13;2.03;;;1.10;;
29238;SDS011;16267;48.194;11.546;2023-08-12T00:33:39;1.98;;;1.35;;
29238;SDS011;16267;48.194;11.546;2023-08-12T00:36:05;1.45;;;1.00;;
29238;SDS011;16267;48.194;11.546;2023-08-12T00:38:32;1.50;;;1.27;;
29238;SDS011;16267;48.194;11.546;2023-08-12T00:40:57;1.48;;;1.13;;
29238;SDS011;16267;48.194;11.546;2023-08-12T00:43:23;1.20;;;0.90;;
29238;SDS011;16267;48.194;11.546;2023-08-12T00:45:49;2.13;;;1.35;;
29238;SDS011;16267;48.194;11.546;2023-08-12T00:48:15;1.30;;;1.00;;
29238;SDS011;16267;48.194;11.546;2023-08-12T00:50:43;1.60;;;0.98;;
29238;SDS011;16267;48.194;11.546;2023-08-12T00:53:09;1.25;;;0.95;;
29238;SDS011;16267;48.194;11.546;2023-08-12T00:55:36;1.80;;;1.23;;
29238;SDS011;16267;48.194;11.546;2023-08-12T00:58:03;5.18;;;2.05;;
29238;SDS011;16267;48.194;11.546;2023-08-12T01:00:30;2.45;;;1.25;;
29238;SDS011;16267;48.194;11.546;2023-08-12T01:02:57;2.03;;;1.20;;
29238;SDS011;16267;48.194;11.546;2023-08-12T01:05:23;2.38;;;1.23;;
29238;SDS011;16267;48.194;11.546;2023-08-12T01:07:49;2.97;;;1.83;;
29238;SDS011;16267;48.194;11.546;2023-08-12T01:10:15;2.35;;;1.50;;
29238;SDS011;16267;48.194;11.546;2023-08-12T01:12:44;1.60;;;1.17;;
29238;SDS011;16267;48.194;11.546;2023-08-12T01:15:20;1.73;;;1.10;;
29238;SDS011;16267;48.194;11.546;2023-08-12T01:17:48;1.30;;;1.00;;
29238;SDS011;16267;48.194;11.546;2023-08-12T01:20:39;5.75;;;1.58;;
29238;SDS011;16267;48.194;11.546;2023-08-12T01:39:01;3.40;;;1.63;;
29238;SDS011;16267;48.194;11.546;2023-08-12T01:41:29;1.95;;;1.15;;
29238;SDS011;16267;48.194;11.546;2023-08-12T01:43:55;2.33;;;1.35;;
29238;SDS011;16267;48.194;11.546;2023-08-12T01:46:21;1.90;;;1.30;;
29238;SDS011;16267;48.194;11.546;2023-08-12T01:48:47;2.45;;;1.27;;
29238;SDS011;16267;48.194;11.546;2023-08-12T01:51:22;1.92;;;1.30;;
29238;SDS011;16267;48.194;11.546;2023-08-12T01:53:48;1.80;;;1.23;;
29238;SDS011;16267;48.194;11.546;2023-08-12T01:56:13;2.50;;;1.73;;
29238;SDS011;16267;48.194;11.546;2023-08-12T01:58:39;3.13;;;1.80;;
29238;SDS011;16267;48.194;11.546;2023-08-12T02:01:05;1.55;;;1.25;;
29238;SDS011;16267;48.194;11.546;2023-08-12T02:03:31;3.55;;;1.63;;
29238;SDS011;16267;48.194;11.546;2023-08-12T02:06:04;2.25;;;1.35;;
29238;SDS011;16267;48.194;11.546;2023-08-12T02:10:55;1.52;;;1.02;;
29238;SDS011;16267;48.194;11.546;2023-08-12T02:13:21;2.60;;;1.67;;
29238;SDS011;16267;48.194;11.546;2023-08-12T02:15:46;1.98;;;1.48;;
29238;SDS011;16267;48.194;11.546;2023-08-12T02:18:12;2.30;;;1.38;;
29238;SDS011;16267;48.194;11.546;2023-08-12T02:20:39;1.98;;;1.52;;
29238;SDS011;16267;48.194;11.546;2023-08-12T02:23:06;2.10;;;1.40;;
29238;SDS011;16267;48.194;11.546;2023-08-12T02:25:32;4.57;;;1.50;;
29238;SDS011;16267;48.194;11.546;2023-08-12T02:27:58;1.90;;;1.27;;
29238;SDS011;16267;48.194;11.546;2023-08-12T02:30:23;2.42;;;1.30;;
29238;SDS011;16267;48.194;11.546;2023-08-12T02:32:49;2.00;;;1.40;;
29238;SDS011;16267;48.194;11.546;2023-08-12T02:35:16;1.40;;;1.10;;
29238;SDS011;16267;48.194;11.546;2023-08-12T02:38:13;3.05;;;1.10;;
29238;SDS011;16267;48.194;11.546;2023-08-12T02:50:25;2.33;;;1.48;;
29238;SDS011;16267;48.194;11.546;2023-08-12T02:52:51;2.75;;;1.45;;
29238;SDS011;16267;48.194;11.546;2023-08-12T02:55:16;2.97;;;1.38;;
29238;SDS011;16267;48.194;11.546;2023-08-12T02:57:42;3.03;;;1.60;;
29238;SDS011;16267;48.194;11.546;2023-08-12T03:00:08;2.72;;;1.70;;
29238;SDS011;16267;48.194;11.546;2023-08-12T03:02:34;3.38;;;1.42;;
29238;SDS011;16267;48.194;11.546;2023-08-12T03:05:00;2.95;;;1.90;;
29238;SDS011;16267;48.194;11.546;2023-08-12T03:07:26;2.42;;;1.45;;
29238;SDS011;16267;48.194;11.546;2023-08-12T03:09:52;3.05;;;1.70;;
29238;SDS011;16267;48.194;11.546;2023-08-12T03:12:18;2.58;;;1.65;;
29238;SDS011;16267;48.194;11.546;2023-08-12T03:14:44;2.60;;;1.42;;
29238;SDS011;16267;48.194;11.546;2023-08-12T03:17:09;1.92;;;1.23;;
29238;SDS011;16267;48.194;11.546;2023-08-12T03:19:35;1.63;;;1.27;;
29238;SDS011;16267;48.194;11.546;2023-08-12T03:22:01;3.67;;;1.58;;
29238;SDS011;16267;48.194;11.546;2023-08-12T03:24:27;3.40;;;1.33;;
29238;SDS011;16267;48.194;11.546;2023-08-12T03:26:53;1.70;;;1.30;;
29238;SDS011;16267;48.194;11.546;2023-08-12T03:29:19;2.63;;;1.70;;
29238;SDS011;16267;48.194;11.546;2023-08-12T03:31:45;3.33;;;1.65;;
29238;SDS011;16267;48.194;11.546;2023-08-12T03:34:10;2.42;;;1.50;;
29238;SDS011;16267;48.194;11.546;2023-08-12T03:36:36;5.40;;;1.60;;
29238;SDS011;16267;48.194;11.546;2023-08-12T03:39:02;2.17;;;1.33;;
29238;SDS011;16267;48.194;11.546;2023-08-12T03:41:28;3.92;;;1.67;;
29238;SDS011;16267;48.194;11.546;2023-08-12T03:43:54;2.30;;;1.60;;
29238;SDS011;16267;48.194;11.546;2023-08-12T03:46:20;2.85;;;1.70;;
29238;SDS011;16267;48.194;11.546;2023-08-12T03:48:45;4.10;;;1.50;;
29238;SDS011;16267;48.194;11.546;2023-08-12T03:51:11;2.47;;;1.58;;
29238;SDS011;16267;48.194;11.546;2023-08-12T03:53:37;1.63;;;1.33;;
29238;SDS011;16267;48.194;11.546;2023-08-12T03:56:03;1.63;;;1.15;;
29238;SDS011;16267;48.194;11.546;2023-08-12T03:58:29;1.80;;;1.45;;
29238;SDS011;16267;48.194;11.546;2023-08-12T04:00:55;2.38;;;1.35;;
29238;SDS011;16267;48.194;11.546;2023-08-12T04:03:21;2.13;;;1.55;;
29238;SDS011;16267;48.194;11.546;2023-08-12T04:05:47;1.75;;;1.30;;
29238;SDS011;16267;48.194;11.546;2023-08-12T04:08:18;2.72;;;1.70;;
29238;SDS011;16267;48.194;11.546;2023-08-12T04:10:46;4.68;;;1.83;;
29238;SDS011;16267;48.194;11.546;2023-08-12T04:13:12;3.45;;;1.40;;
29238;SDS011;16267;48.194;11.546;2023-08-12T04:15:40;1.95;;;1.30;;
29238;SDS011;16267;48.194;11.546;2023-08-12T04:18:06;2.90;;;1.60;;
29238;SDS011;16267;48.194;11.546;2023-08-12T04:20:32;3.88;;;1.10;;
29238;SDS011;16267;48.194;11.546;2023-08-12T04:22:58;2.90;;;1.65;;
29238;SDS011;16267;48.194;11.546;2023-08-12T04:25:23;1.27;;;1.02;;
29238;SDS011;16267;48.194;11.546;2023-08-12T04:27:50;2.50;;;1.40;;
29238;SDS011;16267;48.194;11.546;2023-08-12T04:30:18;3.03;;;1.60;;
29238;SDS011;16267;48.194;11.546;2023-08-12T04:32:44;2.80;;;1.67;;
29238;SDS011;16267;48.194;11.546;2023-08-12T04:35:10;4.32;;;1.70;;
29238;SDS011;16267;48.194;11.546;2023-08-12T04:37:36;1.98;;;1.25;;
29238;SDS011;16267;48.194;11.546;2023-08-12T04:40:02;2.05;;;1.27;;
29238;SDS011;16267;48.194;11.546;2023-08-12T04:42:30;2.30;;;1.33;;
29238;SDS011;16267;48.194;11.546;2023-08-12T04:44:56;2.15;;;1.48;;
29238;SDS011;16267;48.194;11.546;2023-08-12T04:47:22;2.25;;;1.50;;
29238;SDS011;16267;48.194;11.546;2023-08-12T04:49:47;1.65;;;1.20;;
29238;SDS011;16267;48.194;11.546;2023-08-12T04:52:13;2.75;;;1.20;;
29238;SDS011;16267;48.194;11.546;2023-08-12T04:54:39;3.10;;;1.38;;
29238;SDS011;16267;48.194;11.546;2023-08-12T04:57:05;2.78;;;1.50;;
29238;SDS011;16267;48.194;11.546;2023-08-12T04:59:31;1.83;;;1.38;;
29238;SDS011;16267;48.194;11.546;2023-08-12T05:01:56;2.17;;;1.45;;
29238;SDS011;16267;48.194;11.546;2023-08-12T05:04:22;3.10;;;1.67;;
29238;SDS011;16267;48.194;11.546;2023-08-12T05:06:48;4.13;;;1.48;;
29238;SDS011;16267;48.194;11.546;2023-08-12T05:09:14;3.28;;;1.60;;
29238;SDS011;16267;48.194;11.546;2023-08-12T05:11:40;2.85;;;1.38;;
29238;SDS011;16267;48.194;11.546;2023-08-12T05:14:05;2.50;;;1.40;;
29238;SDS011;16267;48.194;11.546;2023-08-12T05:16:31;2.47;;;1.48;;
29238;SDS011;16267;48.194;11.546;2023-08-12T05:18:57;3.13;;;1.50;;
29238;SDS011;16267;48.194;11.546;2023-08-12T05:21:23;3.17;;;1.58;;
29238;SDS011;16267;48.194;11.546;2023-08-12T05:23:49;2.33;;;1.70;;
29238;SDS011;16267;48.194;11.546;2023-08-12T05:26:14;5.57;;;2.03;;
29238;SDS011;16267;48.194;11.546;2023-08-12T05:28:40;2.75;;;1.75;;
29238;SDS011;16267;48.194;11.546;2023-08-12T05:31:07;4.13;;;1.92;;
29238;SDS011;16267;48.194;11.546;2023-08-12T05:33:33;1.90;;;1.40;;
29238;SDS011;16267;48.194;11.546;2023-08-12T05:35:58;2.38;;;1.52;;
29238;SDS011;16267;48.194;11.546;2023-08-12T05:38:24;4.18;;;2.58;;
29238;SDS011;16267;48.194;11.546;2023-08-12T05:40:50;2.25;;;1.90;;
29238;SDS011;16267;48.194;11.546;2023-08-12T05:43:15;3.13;;;2.10;;
29238;SDS011;16267;48.194;11.546;2023-08-12T05:45:41;2.33;;;1.63;;
29238;SDS011;16267;48.194;11.546;2023-08-12T05:48:07;4.35;;;2.60;;
29238;SDS011;16267;48.194;11.546;2023-08-12T05:50:33;4.65;;;2.22;;
29238;SDS011;16267;48.194;11.546;2023-08-12T05:52:59;3.10;;;2.13;;
29238;SDS011;16267;48.194;11.546;2023-08-12T05:55:25;3.00;;;2.25;;
29238;SDS011;16267;48.194;11.546;2023-08-12T05:57:50;3.67;;;2.60;;
29238;SDS011;16267;48.194;11.546;2023-08-12T06:00:16;3.60;;;1.98;;
29238;SDS011;16267;48.194;11.546;2023-08-12T06:02:42;4.20;;;1.92;;
29238;SDS011;16267;48.194;11.546;2023-08-12T06:05:08;3.10;;;1.85;;
29238;SDS011;16267;48.194;11.546;2023-08-12T06:07:34;2.28;;;1.83;;
29238;SDS011;16267;48.194;11.546;2023-08-12T06:10:00;2.50;;;1.75;;
29238;SDS011;16267;48.194;11.546;2023-08-12T06:12:26;5.13;;;1.70;;
29238;SDS011;16267;48.194;11.546;2023-08-12T06:14:52;2.05;;;1.33;;
29238;SDS011;16267;48.194;11.546;2023-08-12T06:17:17;3.42;;;1.60;;
29238;SDS011;16267;48.194;11.546;2023-08-12T06:19:43;5.68;;;1.60;;
29238;SDS011;16267;48.194;11.546;2023-08-12T06:22:09;2.97;;;1.95;;
29238;SDS011;16267;48.194;11.546;2023-08-12T06:24:35;2.97;;;1.50;;
29238;SDS011;16267;48.194;11.546;2023-08-12T06:27:02;2.75;;;1.50;;
29238;SDS011;16267;48.194;11.546;2023-08-12T06:29:31;1.73;;;1.30;;
29238;SDS011;16267;48.194;11.546;2023-08-12T06:31:57;5.22;;;1.70;;
29238;SDS011;16267;48.194;11.546;2023-08-12T06:34:28;3.63;;;1.50;;
29238;SDS011;16267;48.194;11.546;2023-08-12T06:37:53;3.88;;;1.55;;
29238;SDS011;16267;48.194;11.546;2023-08-12T06:40:19;2.80;;;1.80;;
29238;SDS011;16267;48.194;11.546;2023-08-12T06:42:45;1.95;;;1.35;;
29238;SDS011;16267;48.194;11.546;2023-08-12T06:45:11;2.80;;;1.50;;
29238;SDS011;16267;48.194;11.546;2023-08-12T06:47:37;1.98;;;1.30;;
29238;SDS011;16267;48.194;11.546;2023-08-12T06:50:02;3.22;;;1.73;;
29238;SDS011;16267;48.194;11.546;2023-08-12T06:52:30;1.88;;;1.42;;
29238;SDS011;16267;48.194;11.546;2023-08-12T06:54:55;2.25;;;1.55;;
29238;SDS011;16267;48.194;11.546;2023-08-12T06:57:21;2.58;;;1.55;;
29238;SDS011;16267;48.194;11.546;2023-08-12T06:59:47;1.90;;;1.48;;
29238;SDS011;16267;48.194;11.546;2023-08-12T07:02:13;2.17;;;1.60;;
29238;SDS011;16267;48.194;11.546;2023-08-12T07:04:38;2.55;;;1.55;;
29238;SDS011;16267;48.194;11.546;2023-08-12T07:07:04;2.40;;;1.60;;
29238;SDS011;16267;48.194;11.546;2023-08-12T07:09:33;3.00;;;1.50;;
29238;SDS011;16267;48.194;11.546;2023-08-12T07:11:59;3.05;;;1.85;;
29238;SDS011;16267;48.194;11.546;2023-08-12T07:14:26;2.78;;;1.33;;
29238;SDS011;16267;48.194;11.546;2023-08-12T07:16:53;1.95;;;1.30;;
29238;SDS011;16267;48.194;11.546;2023-08-12T07:19:19;1.67;;;1.35;;
29238;SDS011;16267;48.194;11.546;2023-08-12T07:21:45;3.60;;;1.70;;
29238;SDS011;16267;48.194;11.546;2023-08-12T07:24:10;2.25;;;1.45;;
29238;SDS011;16267;48.194;11.546;2023-08-12T07:26:36;2.55;;;1.50;;
29238;SDS011;16267;48.194;11.546;2023-08-12T07:29:02;2.03;;;1.30;;
29238;SDS011;16267;48.194;11.546;2023-08-12T07:31:28;1.77;;;1.27;;
29238;SDS011;16267;48.194;11.546;2023-08-12T07:33:54;2.25;;;1.70;;
29238;SDS011;16267;48.194;11.546;2023-08-12T07:36:19;1.55;;;1.20;;
29238;SDS011;16267;48.194;11.546;2023-08-12T07:38:45;1.63;;;1.05;;
29238;SDS011;16267;48.194;11.546;2023-08-12T07:41:11;1.95;;;1.35;;
29238;SDS011;16267;48.194;11.546;2023-08-12T07:43:37;1.80;;;1.35;;
29238;SDS011;16267;48.194;11.546;2023-08-12T07:46:02;1.33;;;1.00;;
29238;SDS011;16267;48.194;11.546;2023-08-12T07:48:29;3.35;;;1.58;;
29238;SDS011;16267;48.194;11.546;2023-08-12T07:50:56;1.70;;;1.15;;
29238;SDS011;16267;48.194;11.546;2023-08-12T07:53:27;1.90;;;1.38;;
29238;SDS011;16267;48.194;11.546;2023-08-12T07:55:52;1.65;;;1.30;;
29238;SDS011;16267;48.194;11.546;2023-08-12T07:58:18;2.05;;;1.30;;
29238;SDS011;16267;48.194;11.546;2023-08-12T08:00:44;1.83;;;1.50;;
29238;SDS011;16267;48.194;11.546;2023-08-12T08:03:10;1.95;;;1.45;;
29238;SDS011;16267;48.194;11.546;2023-08-12T08:05:35;1.60;;;1.38;;
29238;SDS011;16267;48.194;11.546;2023-08-12T08:08:09;2.20;;;1.38;;
29238;SDS011;16267;48.194;11.546;2023-08-12T08:10:56;1.40;;;1.23;;
29238;SDS011;16267;48.194;11.546;2023-08-12T08:13:24;2.47;;;1.40;;
29238;SDS011;16267;48.194;11.546;2023-08-12T08:15:49;1.73;;;1.42;;
29238;SDS011;16267;48.194;11.546;2023-08-12T08:18:15;2.53;;;1.30;;
29238;SDS011;16267;48.194;11.546;2023-08-12T08:20:42;2.08;;;1.10;;
29238;SDS011;16267;48.194;11.546;2023-08-12T08:23:08;1.70;;;1.30;;
29238;SDS011;16267;48.194;11.546;2023-08-12T08:25:34;1.95;;;1.30;;
29238;SDS011;16267;48.194;11.546;2023-08-12T08:28:00;3.22;;;1.35;;
29238;SDS011;16267;48.194;11.546;2023-08-12T08:30:25;3.10;;;1.52;;
29238;SDS011;16267;48.194;11.546;2023-08-12T08:32:52;2.20;;;1.38;;
29238;SDS011;16267;48.194;11.546;2023-08-12T08:35:18;2.03;;;1.42;;
29238;SDS011;16267;48.194;11.546;2023-08-12T08:37:44;1.90;;;1.52;;
29238;SDS011;16267;48.194;11.546;2023-08-12T08:40:10;1.90;;;1.33;;
29238;SDS011;16267;48.194;11.546;2023-08-12T08:42:37;1.45;;;1.17;;
29238;SDS011;16267;48.194;11.546;2023-08-12T08:45:03;2.30;;;1.38;;
29238;SDS011;16267;48.194;11.546;2023-08-12T08:47:36;1.70;;;1.40;;
29238;SDS011;16267;48.194;11.546;2023-08-12T08:50:03;1.70;;;1.25;;
29238;SDS011;16267;48.194;11.546;2023-08-12T08:52:30;1.50;;;1.00;;
29238;SDS011;16267;48.194;11.546;2023-08-12T08:54:57;1.40;;;1.20;;
29238;SDS011;16267;48.194;11.546;2023-08-12T08:57:25;1.20;;;1.08;;
29238;SDS011;16267;48.194;11.546;2023-08-12T08:59:53;2.33;;;1.50;;
29238;SDS011;16267;48.194;11.546;2023-08-12T09:02:19;1.63;;;1.23;;
29238;SDS011;16267;48.194;11.546;2023-08-12T09:04:46;1.77;;;1.33;;
29238;SDS011;16267;48.194;11.546;2023-08-12T09:07:13;1.48;;;1.33;;
29238;SDS011;16267;48.194;11.546;2023-08-12T09:09:44;1.90;;;1.50;;
29238;SDS011;16267;48.194;11.546;2023-08-12T09:12:14;2.15;;;1.38;;
29238;SDS011;16267;48.194;11.546;2023-08-12T09:14:42;3.25;;;1.67;;
29238;SDS011;16267;48.194;11.546;2023-08-12T09:17:08;2.00;;;1.55;;
29238;SDS011;16267;48.194;11.546;2023-08-12T09:19:35;2.80;;;2.13;;
29238;SDS011;16267;48.194;11.546;2023-08-12T09:22:02;2.38;;;1.58;;
29238;SDS011;16267;48.194;11.546;2023-08-12T09:24:30;2.67;;;1.48;;
29238;SDS011;16267;48.194;11.546;2023-08-12T09:26:56;2.60;;;2.00;;
29238;SDS011;16267;48.194;11.546;2023-08-12T09:29:32;1.75;;;1.35;;
29238;SDS011;16267;48.194;11.546;2023-08-12T09:32:32;1.85;;;1.42;;
29238;SDS011;16267;48.194;11.546;2023-08-12T09:34:52;2.97;;;1.63;;
29238;SDS011;16267;48.194;11.546;2023-08-12T09:37:19;3.58;;;1.60;;
29238;SDS011;16267;48.194;11.546;2023-08-12T09:39:48;1.77;;;1.40;;
29238;SDS011;16267;48.194;11.546;2023-08-12T09:42:16;2.08;;;1.40;;
29238;SDS011;16267;48.194;11.546;2023-08-12T09:44:42;1.85;;;1.15;;
29238;SDS011;16267;48.194;11.546;2023-08-12T09:47:09;2.03;;;1.50;;
29238;SDS011;16267;48.194;11.546;2023-08-12T09:49:35;1.92;;;1.27;;
29238;SDS011;16267;48.194;11.546;2023-08-12T09:52:06;2.35;;;1.35;;
29238;SDS011;16267;48.194;11.546;2023-08-12T09:54:33;1.88;;;1.30;;
29238;SDS011;16267;48.194;11.546;2023-08-12T09:57:01;2.35;;;1.50;;
29238;SDS011;16267;48.194;11.546;2023-08-12T09:59:31;1.92;;;1.40;;
29238;SDS011;16267;48.194;11.546;2023-08-12T10:02:00;1.50;;;1.35;;
29238;SDS011;16267;48.194;11.546;2023-08-12T10:04:50;1.50;;;1.20;;
29238;SDS011;16267;48.194;11.546;2023-08-12T10:07:21;1.60;;;1.50;;
29238;SDS011;16267;48.194;11.546;2023-08-12T10:09:48;1.52;;;1.40;;
29238;SDS011;16267;48.194;11.546;2023-08-12T10:12:14;3.22;;;1.73;;
29238;SDS011;16267;48.194;11.546;2023-08-12T10:14:42;1.60;;;1.35;;
29238;SDS011;16267;48.194;11.546;2023-08-12T10:17:08;2.25;;;1.33;;
29238;SDS011;16267;48.194;11.546;2023-08-12T10:19:35;1.50;;;1.30;;
29238;SDS011;16267;48.194;11.546;2023-08-12T10:22:02;1.58;;;1.30;;
29238;SDS011;16267;48.194;11.546;2023-08-12T10:24:29;1.50;;;1.20;;
29238;SDS011;16267;48.194;11.546;2023-08-12T10:26:55;6.15;;;1.58;;
29238;SDS011;16267;48.194;11.546;2023-08-12T10:29:24;1.73;;;1.40;;
29238;SDS011;16267;48.194;11.546;2023-08-12T10:31:50;2.05;;;1.65;;
29238;SDS011;16267;48.194;11.546;2023-08-12T10:34:20;1.98;;;1.48;;
29238;SDS011;16267;48.194;11.546;2023-08-12T10:36:48;1.85;;;1.38;;
29238;SDS011;16267;48.194;11.546;2023-08-12T10:39:19;1.27;;;1.17;;
29238;SDS011;16267;48.194;11.546;2023-08-12T10:41:55;1.63;;;1.40;;
29238;SDS011;16267;48.194;11.546;2023-08-12T10:44:21;1.42;;;1.13;;
29238;SDS011;16267;48.194;11.546;2023-08-12T10:47:10;1.83;;;1.40;;
29238;SDS011;16267;48.194;11.546;2023-08-12T10:49:42;2.03;;;1.42;;
29238;SDS011;16267;48.194;11.546;2023-08-12T10:52:25;1.40;;;1.10;;
29238;SDS011;16267;48.194;11.546;2023-08-12T10:54:54;4.30;;;1.58;;
29238;SDS011;16267;48.194;11.546;2023-08-12T10:57:42;2.90;;;1.73;;
29238;SDS011;16267;48.194;11.546;2023-08-12T11:00:15;1.88;;;1.40;;
29238;SDS011;16267;48.194;11.546;2023-08-12T11:02:44;3.17;;;1.83;;
29238;SDS011;16267;48.194;11.546;2023-08-12T11:05:13;5.22;;;1.88;;
29238;SDS011;16267;48.194;11.546;2023-08-12T11:07:43;2.17;;;1.40;;
29238;SDS011;16267;48.194;11.546;2023-08-12T11:12:42;1.25;;;1.00;;
29238;SDS011;16267;48.194;11.546;2023-08-12T11:17:59;1.20;;;1.02;;
29238;SDS011;16267;48.194;11.546;2023-08-12T11:20:29;2.42;;;1.70;;
29238;SDS011;16267;48.194;11.546;2023-08-12T11:22:55;2.33;;;1.63;;
29238;SDS011;16267;48.194;11.546;2023-08-12T11:25:23;1.73;;;1.20;;
29238;SDS011;16267;48.194;11.546;2023-08-12T11:27:50;1.40;;;1.10;;
29238;SDS011;16267;48.194;11.546;2023-08-12T11:30:17;1.23;;;1.02;;
29238;SDS011;16267;48.194;11.546;2023-08-12T11:32:46;1.20;;;1.10;;
29238;SDS011;16267;48.194;11.546;2023-08-12T11:35:14;1.95;;;1.17;;
29238;SDS011;16267;48.194;11.546;2023-08-12T11:37:43;1.70;;;1.50;;
29238;SDS011;16267;48.194;11.546;2023-08-12T11:40:12;1.88;;;1.13;;
29238;SDS011;16267;48.194;11.546;2023-08-12T11:42:40;1.75;;;1.42;;
29238;SDS011;16267;48.194;11.546;2023-08-12T11:45:09;2.15;;;1.23;;
29238;SDS011;16267;48.194;11.546;2023-08-12T11:47:37;1.08;;;0.90;;
29238;SDS011;16267;48.194;11.546;2023-08-12T11:50:05;1.88;;;1.23;;
29238;SDS011;16267;48.194;11.546;2023-08-12T11:52:36;1.40;;;1.00;;
29238;SDS011;16267;48.194;11.546;2023-08-12T11:55:03;3.15;;;1.00;;
29238;SDS011;16267;48.194;11.546;2023-08-12T11:57:31;1.67;;;1.08;;
29238;SDS011;16267;48.194;11.546;2023-08-12T12:00:02;1.70;;;1.40;;
29238;SDS011;16267;48.194;11.546;2023-08-12T12:02:44;3.08;;;1.05;;
29238;SDS011;16267;48.194;11.546;2023-08-12T12:05:20;1.63;;;1.30;;
29238;SDS011;16267;48.194;11.546;2023-08-12T12:07:48;1.13;;;1.00;;
29238;SDS011;16267;48.194;11.546;2023-08-12T12:10:19;1.20;;;1.10;;
29238;SDS011;16267;48.194;11.546;2023-08-12T12:12:55;1.25;;;1.00;;
29238;SDS011;16267;48.194;11.546;2023-08-12T12:15:21;1.38;;;0.95;;
29238;SDS011;16267;48.194;11.546;2023-08-12T12:17:49;1.17;;;0.95;;
29238;SDS011;16267;48.194;11.546;2023-08-12T12:20:16;1.05;;;0.80;;
29238;SDS011;16267;48.194;11.546;2023-08-12T12:22:42;1.38;;;1.02;;
29238;SDS011;16267;48.194;11.546;2023-08-12T12:25:11;1.42;;;0.80;;
29238;SDS011;16267;48.194;11.546;2023-08-12T12:27:39;2.25;;;1.17;;
29238;SDS011;16267;48.194;11.546;2023-08-12T12:30:07;1.40;;;1.05;;
29238;SDS011;16267;48.194;11.546;2023-08-12T12:32:35;1.17;;;1.02;;
29238;SDS011;16267;48.194;11.546;2023-08-12T12:35:01;2.33;;;1.30;;
29238;SDS011;16267;48.194;11.546;2023-08-12T12:37:28;1.98;;;1.30;;
29238;SDS011;16267;48.194;11.546;2023-08-12T12:39:55;1.00;;;0.80;;
29238;SDS011;16267;48.194;11.546;2023-08-12T12:42:20;1.42;;;0.90;;
29238;SDS011;16267;48.194;11.546;2023-08-12T12:44:46;1.10;;;1.00;;
29238;SDS011;16267;48.194;11.546;2023-08-12T12:47:12;1.77;;;1.25;;
29238;SDS011;16267;48.194;11.546;2023-08-12T12:49:38;1.30;;;0.90;;
29238;SDS011;16267;48.194;11.546;2023-08-12T12:52:06;1.88;;;1.10;;
29238;SDS011;16267;48.194;11.546;2023-08-12T12:54:32;1.40;;;0.93;;
29238;SDS011;16267;48.194;11.546;2023-08-12T12:56:58;1.33;;;0.98;;
29238;SDS011;16267;48.194;11.546;2023-08-12T12:59:24;1.65;;;1.00;;
29238;SDS011;16267;48.194;11.546;2023-08-12T13:01:51;1.67;;;1.00;;
29238;SDS011;16267;48.194;11.546;2023-08-12T13:04:16;1.33;;;0.90;;
29238;SDS011;16267;48.194;11.546;2023-08-12T13:06:42;1.30;;;0.95;;
29238;SDS011;16267;48.194;11.546;2023-08-12T13:09:08;1.27;;;0.90;;
29238;SDS011;16267;48.194;11.546;2023-08-12T13:11:34;0.65;;;0.60;;
29238;SDS011;16267;48.194;11.546;2023-08-12T13:14:00;1.20;;;0.80;;
29238;SDS011;16267;48.194;11.546;2023-08-12T13:16:27;0.95;;;0.75;;
29238;SDS011;16267;48.194;11.546;2023-08-12T13:18:53;1.58;;;1.20;;
29238;SDS011;16267;48.194;11.546;2023-08-12T13:21:19;1.75;;;1.05;;
29238;SDS011;16267;48.194;11.546;2023-08-12T13:23:44;1.02;;;0.70;;
29238;SDS011;16267;48.194;11.546;2023-08-12T13:26:10;1.02;;;0.82;;
29238;SDS011;16267;48.194;11.546;2023-08-12T13:28:36;2.05;;;1.08;;
29238;SDS011;16267;48.194;11.546;2023-08-12T13:31:02;1.40;;;1.02;;
29238;SDS011;16267;48.194;11.546;2023-08-12T13:33:27;1.15;;;0.90;;
29238;SDS011;16267;48.194;11.546;2023-08-12T13:35:53;1.77;;;1.20;;
29238;SDS011;16267;48.194;11.546;2023-08-12T13:38:19;1.20;;;0.88;;
29238;SDS011;16267;48.194;11.546;2023-08-12T13:40:45;1.40;;;0.90;;
29238;SDS011;16267;48.194;11.546;2023-08-12T13:43:11;2.38;;;1.27;;
29238;SDS011;16267;48.194;11.546;2023-08-12T13:45:36;1.77;;;1.00;;
29238;SDS011;16267;48.194;11.546;2023-08-12T13:48:02;1.25;;;0.80;;
29238;SDS011;16267;48.194;11.546;2023-08-12T13:50:28;1.38;;;0.65;;
29238;SDS011;16267;48.194;11.546;2023-08-12T13:52:57;2.13;;;0.98;;
29238;SDS011;16267;48.194;11.546;2023-08-12T13:55:24;1.80;;;0.57;;
29238;SDS011;16267;48.194;11.546;2023-08-12T13:57:50;0.98;;;0.80;;
29238;SDS011;16267;48.194;11.546;2023-08-12T14:00:17;1.60;;;0.82;;
29238;SDS011;16267;48.194;11.546;2023-08-12T14:02:43;0.75;;;0.60;;
29238;SDS011;16267;48.194;11.546;2023-08-12T14:05:10;1.30;;;1.10;;
29238;SDS011;16267;48.194;11.546;2023-08-12T14:07:36;1.02;;;0.82;;
29238;SDS011;16267;48.194;11.546;2023-08-12T14:10:02;1.13;;;0.90;;
29238;SDS011;16267;48.194;11.546;2023-08-12T14:12:29;1.00;;;0.93;;
29238;SDS011;16267;48.194;11.546;2023-08-12T14:14:55;1.67;;;0.98;;
29238;SDS011;16267;48.194;11.546;2023-08-12T14:17:20;2.40;;;1.35;;
29238;SDS011;16267;48.194;11.546;2023-08-12T14:19:48;1.52;;;0.90;;
29238;SDS011;16267;48.194;11.546;2023-08-12T14:22:23;1.17;;;0.90;;
29238;SDS011;16267;48.194;11.546;2023-08-12T14:24:49;1.90;;;1.13;;
29238;SDS011;16267;48.194;11.546;2023-08-12T14:27:15;1.90;;;1.00;;
29238;SDS011;16267;48.194;11.546;2023-08-12T14:29:43;2.42;;;1.23;;
29238;SDS011;16267;48.194;11.546;2023-08-12T14:32:09;1.20;;;1.00;;
29238;SDS011;16267;48.194;11.546;2023-08-12T14:34:35;2.25;;;1.50;;
29238;SDS011;16267;48.194;11.546;2023-08-12T14:37:02;1.92;;;1.27;;
29238;SDS011;16267;48.194;11.546;2023-08-12T14:39:28;1.85;;;1.20;;
29238;SDS011;16267;48.194;11.546;2023-08-12T14:41:53;2.35;;;1.27;;
29238;SDS011;16267;48.194;11.546;2023-08-12T14:44:19;2.45;;;1.05;;
29238;SDS011;16267;48.194;11.546;2023-08-12T14:46:45;1.35;;;0.90;;
29238;SDS011;16267;48.194;11.546;2023-08-12T14:49:11;1.45;;;1.10;;
29238;SDS011;16267;48.194;11.546;2023-08-12T14:51:37;1.80;;;1.45;;
29238;SDS011;16267;48.194;11.546;2023-08-12T14:54:03;2.47;;;1.60;;
29238;SDS011;16267;48.194;11.546;2023-08-12T14:56:29;1.40;;;0.98;;
29238;SDS011;16267;48.194;11.546;2023-08-12T14:58:54;2.22;;;1.45;;
29238;SDS011;16267;48.194;11.546;2023-08-12T15:01:20;2.92;;;1.73;;
29238;SDS011;16267;48.194;11.546;2023-08-12T15:03:46;1.65;;;1.35;;
29238;SDS011;16267;48.194;11.546;2023-08-12T15:06:12;1.83;;;1.23;;
29238;SDS011;16267;48.194;11.546;2023-08-12T15:08:38;1.70;;;1.08;;
29238;SDS011;16267;48.194;11.546;2023-08-12T15:11:05;1.58;;;1.10;;